sensor_id;sensor_type;location;lat;lon;timestamp;temperature;humidity
6174;DHT22;3120;48.796;9.796;2023-09-19T00:00:42;18.00;99.90
6174;DHT22;3120;48.796;9.796;2023-09-19T00:03:18;17.60;99.90
6174;DHT22;3120;48.796;9.796;2023-09-19T00:05:46;18.60;99.90
6174;DHT22;3120;48.796;9.796;2023-09-19T00:08:16;17.60;99.90
6174;DHT22;3120;48.796;9.796;2023-09-19T08:25:38;16.40;99.90
6174;DHT22;3120;48.796;9.796;2023-09-19T08:38:15;18.40;99.90
6174;DHT22;3120;48.796;9.796;2023-09-19T21:16:54;14.10;99.90
6174;DHT22;3120;48.796;9.796;2023-09-19T21:19:19;14.10;99.90
6174;DHT22;3120;48.796;9.796;2023-09-19T21:21:46;14.10;99.90
6174;DHT22;3120;48.796;9.796;2023-09-19T21:24:14;14.00;99.90
6174;DHT22;3120;48.796;9.796;2023-09-19T21:26:53;14.00;99.90
6174;DHT22;3120;48.796;9.796;2023-09-19T21:29:19;14.00;99.90
6174;DHT22;3120;48.796;9.796;2023-09-19T21:31:45;13.90;99.90
6174;DHT22;3120;48.796;9.796;2023-09-19T21:34:14;14.00;99.90
6174;DHT22;3120;48.796;9.796;2023-09-19T21:36:40;13.80;99.90
6174;DHT22;3120;48.796;9.796;2023-09-19T21:39:06;13.80;99.90
6174;DHT22;3120;48.796;9.796;2023-09-19T21:44:08;13.90;99.90
6174;DHT22;3120;48.796;9.796;2023-09-19T21:46:34;13.80;99.90
6174;DHT22;3120;48.796;9.796;2023-09-19T21:49:00;13.80;99.90
6174;DHT22;3120;48.796;9.796;2023-09-19T21:51:32;13.60;99.90
6174;DHT22;3120;48.796;9.796;2023-09-19T21:54:01;13.60;99.90
6174;DHT22;3120;48.796;9.796;2023-09-19T21:56:31;13.50;99.90
6174;DHT22;3120;48.796;9.796;2023-09-19T21:59:06;13.50;99.90
6174;DHT22;3120;48.796;9.796;2023-09-19T22:01:31;13.20;99.90
6174;DHT22;3120;48.796;9.796;2023-09-19T22:03:57;13.40;99.90
6174;DHT22;3120;48.796;9.796;2023-09-19T22:06:23;13.40;99.90
6174;DHT22;3120;48.796;9.796;2023-09-19T22:08:49;13.10;99.90
6174;DHT22;3120;48.796;9.796;2023-09-19T22:11:18;13.00;99.90
6174;DHT22;3120;48.796;9.796;2023-09-19T22:13:45;14.10;99.90
6174;DHT22;3120;48.796;9.796;2023-09-19T22:16:12;12.90;99.90
6174;DHT22;3120;48.796;9.796;2023-09-19T22:18:39;13.10;99.90
6174;DHT22;3120;48.796;9.796;2023-09-19T22:21:05;13.20;99.90
6174;DHT22;3120;48.796;9.796;2023-09-19T22:23:38;13.00;99.90
6174;DHT22;3120;48.796;9.796;2023-09-19T22:26:11;13.10;99.90
6174;DHT22;3120;48.796;9.796;2023-09-19T22:28:48;13.20;99.90
6174;DHT22;3120;48.796;9.796;2023-09-19T22:33:53;13.50;99.90
6174;DHT22;3120;48.796;9.796;2023-09-19T22:36:23;12.90;99.90
6174;DHT22;3120;48.796;9.796;2023-09-19T22:38:52;12.90;99.90
6174;DHT22;3120;48.796;9.796;2023-09-19T22:41:19;13.00;99.90
6174;DHT22;3120;48.796;9.796;2023-09-19T22:43:46;12.90;99.90
6174;DHT22;3120;48.796;9.796;2023-09-19T22:46:14;13.00;99.90
6174;DHT22;3120;48.796;9.796;2023-09-19T22:48:40;13.00;99.90
6174;DHT22;3120;48.796;9.796;2023-09-19T22:51:06;12.80;99.90
6174;DHT22;3120;48.796;9.796;2023-09-19T22:53:32;13.50;99.90
6174;DHT22;3120;48.796;9.796;2023-09-19T22:56:07;12.70;99.90
6174;DHT22;3120;48.796;9.796;2023-09-19T22:58:39;12.80;99.90
6174;DHT22;3120;48.796;9.796;2023-09-19T23:01:09;12.50;99.90
6174;DHT22;3120;48.796;9.796;2023-09-19T23:03:44;13.00;99.90
6174;DHT22;3120;48.796;9.796;2023-09-19T23:06:17;12.80;99.90
6174;DHT22;3120;48.796;9.796;2023-09-19T23:08:48;12.70;99.90
6174;DHT22;3120;48.796;9.796;2023-09-19T23:11:13;12.70;99.90
6174;DHT22;3120;48.796;9.796;2023-09-19T23:13:44;12.50;99.90
6174;DHT22;3120;48.796;9.796;2023-09-19T23:16:11;12.60;99.90
6174;DHT22;3120;48.796;9.796;2023-09-19T23:18:38;12.60;99.90
6174;DHT22;3120;48.796;9.796;2023-09-19T23:23:42;12.60;99.90
6174;DHT22;3120;48.796;9.796;2023-09-19T23:28:40;12.50;99.90
6174;DHT22;3120;48.796;9.796;2023-09-19T23:58:03;12.40;99.90
